createdAt,value
2018-08-31T00:00:04.417Z,0.00
2018-08-31T00:01:04.366Z,0.00
2018-08-31T00:02:04.317Z,0.00
2018-08-31T00:03:04.265Z,0.00
2018-08-31T00:04:04.249Z,0.00
2018-08-31T00:05:04.165Z,0.00
2018-08-31T00:06:04.117Z,0.00
2018-08-31T00:07:04.065Z,0.00
2018-08-31T00:08:04.015Z,0.00
2018-08-31T00:09:03.995Z,0.00
2018-08-31T00:10:03.918Z,0.00
2018-08-31T00:11:03.870Z,0.00
2018-08-31T00:12:03.859Z,0.00
2018-08-31T00:13:03.766Z,0.00
2018-08-31T00:14:03.717Z,0.00
2018-08-31T00:15:03.667Z,0.00
2018-08-31T00:16:03.619Z,0.00
2018-08-31T00:17:03.602Z,0.00
2018-08-31T00:18:03.519Z,0.00
2018-08-31T00:19:03.469Z,0.00
2018-08-31T00:20:03.451Z,0.00
2018-08-31T00:21:03.371Z,0.00
2018-08-31T00:22:03.319Z,0.00
2018-08-31T00:23:03.294Z,0.00
2018-08-31T00:24:03.220Z,0.00
2018-08-31T00:25:03.203Z,0.00
2018-08-31T00:26:03.121Z,0.00
2018-08-31T00:27:03.070Z,0.00
2018-08-31T00:28:03.053Z,0.00
2018-08-31T00:29:02.970Z,0.00
2018-08-31T00:30:02.945Z,0.00
2018-08-31T00:31:02.873Z,0.00
2018-08-31T00:32:02.818Z,0.00
2018-08-31T00:33:02.772Z,0.00
2018-08-31T00:34:02.722Z,0.00
2018-08-31T00:35:02.707Z,0.00
2018-08-31T00:36:02.622Z,0.00
2018-08-31T00:37:02.569Z,0.00
2018-08-31T00:38:02.521Z,0.00
2018-08-31T00:39:02.472Z,0.00
2018-08-31T00:40:02.453Z,0.00
2018-08-31T00:41:02.371Z,0.00
2018-08-31T00:42:02.326Z,0.00
2018-08-31T00:43:02.273Z,0.00
2018-08-31T00:44:02.252Z,0.00
2018-08-31T00:45:02.171Z,0.00
2018-08-31T00:46:02.148Z,0.00
2018-08-31T00:47:02.073Z,0.00
2018-08-31T00:48:02.027Z,0.00
2018-08-31T00:49:01.973Z,0.00
2018-08-31T00:50:01.923Z,0.00
2018-08-31T00:51:01.906Z,0.00
2018-08-31T00:52:01.855Z,0.00
2018-08-31T00:53:01.770Z,0.00
2018-08-31T00:54:01.722Z,0.00
2018-08-31T00:55:01.672Z,0.00
2018-08-31T00:56:01.653Z,0.00
2018-08-31T00:57:01.578Z,0.00
2018-08-31T00:58:01.526Z,0.00
2018-08-31T00:59:01.505Z,0.00
2018-08-31T01:00:01.424Z,0.00
2018-08-31T01:01:01.372Z,0.00
2018-08-31T01:02:01.354Z,0.00
2018-08-31T01:03:01.277Z,0.00
2018-08-31T01:04:01.223Z,0.00
2018-08-31T01:05:01.172Z,0.00
2018-08-31T01:06:01.121Z,0.00
2018-08-31T01:07:01.099Z,0.00
2018-08-31T01:08:01.024Z,0.00
2018-08-31T01:09:00.970Z,0.00
2018-08-31T01:10:00.958Z,0.00
2018-08-31T01:11:00.871Z,0.00
2018-08-31T01:12:00.821Z,0.00
2018-08-31T01:13:00.771Z,0.00
2018-08-31T01:14:00.752Z,0.00
2018-08-31T01:15:00.673Z,0.00
2018-08-31T01:16:00.621Z,0.00
2018-08-31T01:17:00.572Z,0.00
2018-08-31T01:18:00.520Z,0.00
2018-08-31T01:19:00.503Z,0.00
2018-08-31T01:20:00.422Z,0.00
2018-08-31T01:21:00.373Z,0.00
2018-08-31T01:22:00.322Z,0.00
2018-08-31T01:23:00.301Z,0.00
2018-08-31T01:24:00.220Z,0.00
2018-08-31T01:25:00.171Z,0.00
2018-08-31T01:26:00.120Z,0.00
2018-08-31T01:27:00.072Z,0.00
2018-08-31T01:28:00.051Z,0.00
2018-08-31T01:28:59.968Z,0.00
2018-08-31T01:29:59.951Z,0.00
2018-08-31T01:30:59.868Z,0.00
2018-08-31T01:31:59.817Z,0.00
2018-08-31T01:32:59.770Z,0.00
2018-08-31T01:33:59.718Z,0.00
2018-08-31T01:34:59.700Z,0.00
2018-08-31T01:35:59.617Z,0.00
2018-08-31T01:36:59.608Z,0.00
2018-08-31T01:37:59.518Z,0.00
2018-08-31T01:38:59.468Z,0.00
2018-08-31T01:39:59.418Z,0.00
2018-08-31T01:40:59.364Z,0.00
2018-08-31T01:41:59.356Z,0.00
2018-08-31T01:42:59.268Z,0.00
2018-08-31T01:43:59.214Z,0.00
2018-08-31T01:44:59.165Z,0.00
2018-08-31T01:45:59.119Z,0.00
2018-08-31T01:46:59.100Z,0.00
2018-08-31T01:47:59.022Z,0.00
2018-08-31T01:48:58.964Z,0.00
2018-08-31T01:49:58.915Z,0.00
2018-08-31T01:50:58.898Z,0.00
2018-08-31T01:51:58.813Z,0.00
2018-08-31T01:52:58.764Z,0.00
2018-08-31T01:53:58.713Z,0.00
2018-08-31T01:54:58.663Z,0.00
2018-08-31T01:55:58.646Z,0.00
2018-08-31T01:56:58.565Z,0.00
2018-08-31T01:57:58.513Z,0.00
2018-08-31T01:58:58.500Z,0.00
2018-08-31T01:59:58.414Z,0.00
2018-08-31T02:00:58.366Z,0.00
2018-08-31T02:01:58.344Z,0.00
2018-08-31T02:02:58.263Z,0.00
2018-08-31T02:03:58.254Z,0.00
2018-08-31T02:04:58.164Z,0.00
2018-08-31T02:05:58.111Z,0.00
2018-08-31T02:06:58.059Z,0.00
2018-08-31T02:07:58.012Z,0.00
2018-08-31T02:08:57.991Z,0.00
2018-08-31T02:09:57.910Z,0.00
2018-08-31T02:10:57.859Z,0.00
2018-08-31T02:11:57.807Z,0.00
2018-08-31T02:12:57.759Z,0.00
2018-08-31T02:13:57.739Z,0.00
2018-08-31T02:14:57.681Z,0.00
2018-08-31T02:15:57.611Z,0.00
2018-08-31T02:16:57.557Z,0.00
2018-08-31T02:17:57.508Z,0.00
2018-08-31T02:18:57.459Z,0.00
2018-08-31T02:19:57.429Z,0.00
2018-08-31T02:20:57.361Z,0.00
2018-08-31T02:21:57.305Z,0.00
2018-08-31T02:22:57.259Z,0.00
2018-08-31T02:23:57.207Z,0.00
2018-08-31T02:24:57.187Z,0.00
2018-08-31T02:25:57.106Z,0.00
2018-08-31T02:26:57.054Z,0.00
2018-08-31T02:27:57.004Z,0.00
2018-08-31T02:28:56.954Z,0.00
2018-08-31T02:29:56.937Z,0.00
2018-08-31T02:30:56.858Z,0.00
2018-08-31T02:31:56.803Z,0.00
2018-08-31T02:32:56.756Z,0.00
2018-08-31T02:33:56.702Z,0.00
2018-08-31T02:34:56.684Z,0.00
2018-08-31T02:35:56.603Z,0.00
2018-08-31T02:36:56.554Z,0.00
2018-08-31T02:37:56.505Z,0.00
2018-08-31T02:38:56.451Z,0.00
2018-08-31T02:39:56.428Z,0.00
2018-08-31T02:40:56.351Z,0.00
2018-08-31T02:41:56.303Z,0.00
2018-08-31T02:42:56.251Z,0.00
2018-08-31T02:43:56.204Z,0.00
2018-08-31T02:44:56.182Z,0.00
2018-08-31T02:45:56.132Z,0.00
2018-08-31T02:46:56.051Z,0.00
2018-08-31T02:47:56.000Z,0.00
2018-08-31T02:48:55.952Z,0.00
2018-08-31T02:49:55.934Z,0.00
2018-08-31T02:50:55.851Z,0.00
2018-08-31T02:51:55.833Z,0.00
2018-08-31T02:52:55.751Z,0.00
2018-08-31T02:53:55.699Z,0.00
2018-08-31T02:54:55.706Z,0.00
2018-08-31T02:55:55.597Z,0.00
2018-08-31T02:56:55.552Z,0.00
2018-08-31T02:57:55.499Z,0.00
2018-08-31T02:58:55.447Z,0.00
2018-08-31T02:59:55.444Z,0.00
2018-08-31T03:00:55.346Z,0.00
2018-08-31T03:01:55.299Z,0.00
2018-08-31T03:02:55.244Z,0.00
2018-08-31T03:03:55.193Z,0.00
2018-08-31T03:04:55.178Z,0.00
2018-08-31T03:05:55.094Z,0.00
2018-08-31T03:06:55.042Z,0.00
2018-08-31T03:07:54.992Z,0.00
2018-08-31T03:08:54.942Z,0.00
2018-08-31T03:09:54.927Z,0.00
2018-08-31T03:10:54.840Z,0.00
2018-08-31T03:11:54.793Z,0.00
2018-08-31T03:12:54.741Z,0.00
2018-08-31T03:13:54.724Z,0.00
2018-08-31T03:14:54.648Z,0.00
2018-08-31T03:15:54.592Z,0.00
2018-08-31T03:16:54.545Z,0.00
2018-08-31T03:17:54.493Z,0.00
2018-08-31T03:18:54.485Z,0.00
2018-08-31T03:19:54.392Z,0.00
2018-08-31T03:20:54.340Z,0.00
2018-08-31T03:21:54.289Z,0.00
2018-08-31T03:22:54.238Z,0.00
2018-08-31T03:23:54.227Z,0.00
2018-08-31T03:24:54.138Z,0.00
2018-08-31T03:25:54.092Z,0.00
2018-08-31T03:26:54.036Z,0.00
2018-08-31T03:27:53.987Z,0.00
2018-08-31T03:28:53.968Z,0.00
2018-08-31T03:29:53.886Z,0.00
2018-08-31T03:30:53.841Z,0.00
2018-08-31T03:31:53.786Z,0.00
2018-08-31T03:32:53.763Z,0.00
2018-08-31T03:33:53.683Z,0.00
2018-08-31T03:34:53.635Z,0.00
2018-08-31T03:35:53.582Z,0.00
2018-08-31T03:36:53.595Z,0.00
2018-08-31T03:37:53.513Z,0.00
2018-08-31T03:38:53.431Z,0.00
2018-08-31T03:39:53.382Z,0.00
2018-08-31T03:40:53.362Z,0.00
2018-08-31T03:41:53.280Z,0.00
2018-08-31T03:42:53.228Z,0.00
2018-08-31T03:43:53.179Z,0.00
2018-08-31T03:44:53.128Z,0.00
2018-08-31T03:45:53.111Z,0.00
2018-08-31T03:46:53.030Z,0.00
2018-08-31T03:47:53.049Z,0.00
2018-08-31T03:48:52.925Z,0.00
2018-08-31T03:49:52.876Z,0.00
2018-08-31T03:50:52.869Z,0.00
2018-08-31T03:51:52.775Z,0.00
2018-08-31T03:52:52.725Z,0.00
2018-08-31T03:53:52.674Z,0.00
2018-08-31T03:54:52.625Z,0.00
2018-08-31T03:55:52.605Z,0.00
2018-08-31T03:56:52.527Z,0.00
2018-08-31T03:57:52.473Z,0.00
2018-08-31T03:58:52.453Z,0.00
2018-08-31T03:59:52.370Z,0.00
2018-08-31T04:00:52.319Z,0.00
2018-08-31T04:01:52.293Z,0.00
2018-08-31T04:02:52.220Z,0.00
2018-08-31T04:03:52.169Z,0.00
2018-08-31T04:04:52.116Z,0.00
2018-08-31T04:05:52.075Z,0.00
2018-08-31T04:06:52.040Z,0.00
2018-08-31T04:07:51.967Z,0.00
2018-08-31T04:08:51.916Z,0.00
2018-08-31T04:09:51.869Z,0.00
2018-08-31T04:10:51.818Z,0.00
2018-08-31T04:11:51.788Z,0.00
2018-08-31T04:12:51.715Z,0.00
2018-08-31T04:13:51.662Z,4.00
2018-08-31T04:14:51.636Z,4.00
2018-08-31T04:15:51.592Z,0.00
2018-08-31T04:16:51.535Z,0.00
2018-08-31T04:17:51.458Z,4.00
2018-08-31T04:18:51.447Z,4.00
2018-08-31T04:19:51.359Z,0.00
2018-08-31T04:20:51.310Z,4.00
2018-08-31T04:21:51.288Z,4.00
2018-08-31T04:22:51.207Z,8.00
2018-08-31T04:23:51.160Z,4.00
2018-08-31T04:24:51.107Z,8.00
2018-08-31T04:25:51.054Z,8.00
2018-08-31T04:26:51.030Z,8.00
2018-08-31T04:27:50.954Z,12.00
2018-08-31T04:28:50.926Z,8.00
2018-08-31T04:29:50.859Z,12.00
2018-08-31T04:30:50.804Z,12.00
2018-08-31T04:31:50.776Z,12.00
2018-08-31T04:32:50.706Z,16.00
2018-08-31T04:33:50.674Z,12.00
2018-08-31T04:34:50.599Z,16.00
2018-08-31T04:35:50.550Z,16.00
2018-08-31T04:36:50.500Z,20.00
2018-08-31T04:37:50.480Z,16.00
2018-08-31T04:38:50.396Z,20.00
2018-08-31T04:39:50.346Z,20.00
2018-08-31T04:40:50.304Z,24.00
2018-08-31T04:41:50.275Z,28.00
2018-08-31T04:42:50.305Z,28.00
2018-08-31T04:43:50.146Z,28.00
2018-08-31T04:44:50.094Z,32.00
2018-08-31T04:45:50.041Z,36.00
2018-08-31T04:46:49.992Z,40.00
2018-08-31T04:47:49.970Z,48.00
2018-08-31T04:48:49.890Z,56.00
2018-08-31T04:49:49.881Z,64.00
2018-08-31T04:50:49.787Z,72.00
2018-08-31T04:51:49.739Z,80.00
2018-08-31T04:52:49.691Z,88.00
2018-08-31T04:53:49.638Z,96.00
2018-08-31T04:54:49.621Z,108.00
2018-08-31T04:55:49.545Z,128.00
2018-08-31T04:56:49.489Z,148.00
2018-08-31T04:57:49.433Z,168.00
2018-08-31T04:58:49.440Z,184.00
2018-08-31T04:59:49.369Z,196.00
2018-08-31T05:00:49.290Z,212.00
2018-08-31T05:01:49.247Z,224.00
2018-08-31T05:02:49.182Z,220.00
2018-08-31T05:03:49.156Z,220.00
2018-08-31T05:04:49.113Z,216.00
2018-08-31T05:05:49.030Z,212.00
2018-08-31T05:06:48.981Z,208.00
2018-08-31T05:07:48.927Z,204.00
2018-08-31T05:08:48.878Z,196.00
2018-08-31T05:09:48.861Z,188.00
2018-08-31T05:10:48.776Z,184.00
2018-08-31T05:11:48.759Z,180.00
2018-08-31T05:12:48.678Z,172.00
2018-08-31T05:13:48.657Z,176.00
2018-08-31T05:14:48.574Z,180.00
2018-08-31T05:15:48.527Z,180.00
2018-08-31T05:16:48.476Z,184.00
2018-08-31T05:17:48.423Z,188.00
2018-08-31T05:18:48.405Z,196.00
2018-08-31T05:19:48.322Z,208.00
2018-08-31T05:20:48.272Z,220.00
2018-08-31T05:21:48.223Z,232.00
2018-08-31T05:22:48.178Z,248.00
2018-08-31T05:23:48.152Z,256.00
2018-08-31T05:24:48.069Z,268.00
2018-08-31T05:25:48.061Z,280.00
2018-08-31T05:26:47.969Z,288.00
2018-08-31T05:27:47.918Z,292.00
2018-08-31T05:28:47.866Z,292.00
2018-08-31T05:29:47.816Z,304.00
2018-08-31T05:30:47.803Z,316.00
2018-08-31T05:31:47.715Z,336.00
2018-08-31T05:32:47.700Z,356.00
2018-08-31T05:33:47.615Z,380.00
2018-08-31T05:34:47.657Z,404.00
2018-08-31T05:35:47.513Z,424.00
2018-08-31T05:36:47.497Z,440.00
2018-08-31T05:37:47.444Z,444.00
2018-08-31T05:38:47.362Z,468.00
2018-08-31T05:39:47.311Z,512.00
2018-08-31T05:40:47.264Z,528.00
2018-08-31T05:41:47.250Z,556.00
2018-08-31T05:42:47.193Z,564.00
2018-08-31T05:43:47.112Z,592.00
2018-08-31T05:44:47.061Z,620.00
2018-08-31T05:45:47.012Z,636.00
2018-08-31T05:46:46.959Z,636.00
2018-08-31T05:47:46.945Z,588.00
2018-08-31T05:48:46.859Z,604.00
2018-08-31T05:49:46.811Z,612.00
2018-08-31T05:50:46.763Z,596.00
2018-08-31T05:51:46.706Z,664.00
2018-08-31T05:52:46.686Z,756.00
2018-08-31T05:53:46.609Z,640.00
2018-08-31T05:54:46.588Z,680.00
2018-08-31T05:55:46.509Z,884.00
2018-08-31T05:56:46.456Z,960.00
2018-08-31T05:57:46.406Z,1080.00
2018-08-31T05:58:46.387Z,912.00
2018-08-31T05:59:46.310Z,932.00
2018-08-31T06:00:46.306Z,1024.00
2018-08-31T06:01:46.207Z,1204.00
2018-08-31T06:02:46.156Z,1444.00
2018-08-31T06:03:46.106Z,1504.00
2018-08-31T06:04:46.055Z,1448.00
2018-08-31T06:05:46.041Z,1472.00
2018-08-31T06:06:45.985Z,1364.00
2018-08-31T06:07:45.906Z,1164.00
2018-08-31T06:08:45.855Z,1200.00
2018-08-31T06:09:45.803Z,1368.00
2018-08-31T06:10:45.757Z,1396.00
2018-08-31T06:11:45.783Z,1500.00
2018-08-31T06:12:45.653Z,1440.00
2018-08-31T06:13:45.603Z,1400.00
2018-08-31T06:14:45.555Z,1456.00
2018-08-31T06:15:45.505Z,1580.00
2018-08-31T06:16:45.486Z,1724.00
2018-08-31T06:17:45.406Z,1796.00
2018-08-31T06:18:45.353Z,1580.00
2018-08-31T06:19:45.302Z,1548.00
2018-08-31T06:20:45.255Z,1512.00
2018-08-31T06:21:45.237Z,1456.00
2018-08-31T06:22:45.165Z,1552.00
2018-08-31T06:23:45.151Z,1544.00
2018-08-31T06:24:45.055Z,1416.00
2018-08-31T06:25:45.004Z,1272.00
2018-08-31T06:26:44.954Z,1300.00
2018-08-31T06:27:44.907Z,1240.00
2018-08-31T06:28:44.889Z,1176.00
2018-08-31T06:29:44.809Z,1176.00
2018-08-31T06:30:44.757Z,1152.00
2018-08-31T06:31:44.739Z,1268.00
2018-08-31T06:32:44.684Z,1276.00
2018-08-31T06:33:44.621Z,1188.00
2018-08-31T06:34:44.560Z,1088.00
2018-08-31T06:35:44.508Z,1112.00
2018-08-31T06:36:44.498Z,1140.00
2018-08-31T06:37:44.410Z,1156.00
2018-08-31T06:38:44.359Z,1056.00
2018-08-31T06:39:44.307Z,1016.00
2018-08-31T06:40:44.320Z,1000.00
2018-08-31T06:41:44.251Z,980.00
2018-08-31T06:42:44.161Z,1052.00
2018-08-31T06:43:44.111Z,1016.00
2018-08-31T06:44:44.062Z,928.00
2018-08-31T06:45:44.013Z,884.00
2018-08-31T06:46:43.993Z,920.00
2018-08-31T06:47:43.913Z,924.00
2018-08-31T06:48:43.865Z,940.00
2018-08-31T06:49:43.812Z,912.00
2018-08-31T06:50:43.764Z,900.00
2018-08-31T06:51:43.745Z,900.00
2018-08-31T06:52:43.662Z,916.00
2018-08-31T06:53:43.616Z,968.00
2018-08-31T06:54:43.583Z,988.00
2018-08-31T06:55:43.517Z,1020.00
2018-08-31T06:56:43.505Z,1032.00
2018-08-31T06:57:43.417Z,1048.00
2018-08-31T06:58:43.369Z,1060.00
2018-08-31T06:59:43.317Z,1104.00
2018-08-31T07:00:43.268Z,1116.00
2018-08-31T07:01:43.271Z,1128.00
2018-08-31T07:02:43.170Z,1172.00
2018-08-31T07:03:43.143Z,1212.00
2018-08-31T07:04:43.070Z,1232.00
2018-08-31T07:05:43.024Z,1272.00
2018-08-31T07:06:43.075Z,1288.00
2018-08-31T07:07:42.956Z,1252.00
2018-08-31T07:08:42.871Z,1240.00
2018-08-31T07:09:42.840Z,1196.00
2018-08-31T07:10:42.773Z,1172.00
2018-08-31T07:11:42.792Z,1164.00
2018-08-31T07:12:42.674Z,1152.00
2018-08-31T07:13:42.630Z,1148.00
2018-08-31T07:14:42.576Z,1156.00
2018-08-31T07:15:42.527Z,1172.00
2018-08-31T07:16:42.530Z,1196.00
2018-08-31T07:17:42.429Z,1204.00
2018-08-31T07:18:42.385Z,1216.00
2018-08-31T07:19:42.346Z,1236.00
2018-08-31T07:20:42.278Z,1256.00
2018-08-31T07:21:42.264Z,1292.00
2018-08-31T07:22:42.184Z,1360.00
2018-08-31T07:23:42.140Z,1416.00
2018-08-31T07:24:42.082Z,1432.00
2018-08-31T07:25:42.035Z,1420.00
2018-08-31T07:26:42.014Z,1364.00
2018-08-31T07:27:41.967Z,1336.00
2018-08-31T07:28:41.887Z,1340.00
2018-08-31T07:29:41.836Z,1344.00
2018-08-31T07:30:41.821Z,1376.00
2018-08-31T07:31:41.738Z,1408.00
2018-08-31T07:32:41.689Z,1460.00
2018-08-31T07:33:41.664Z,1488.00
2018-08-31T07:34:41.623Z,1472.00
2018-08-31T07:35:41.598Z,1420.00
2018-08-31T07:36:41.494Z,1364.00
2018-08-31T07:37:41.509Z,1352.00
2018-08-31T07:38:41.426Z,1380.00
2018-08-31T07:39:41.344Z,1448.00
2018-08-31T07:40:41.312Z,1512.00
2018-08-31T07:41:41.247Z,1612.00
2018-08-31T07:42:41.230Z,1696.00
2018-08-31T07:43:41.156Z,1732.00
2018-08-31T07:44:41.101Z,1732.00
2018-08-31T07:45:41.056Z,1704.00
2018-08-31T07:46:41.004Z,1680.00
2018-08-31T07:47:40.993Z,1680.00
2018-08-31T07:48:40.905Z,1612.00
2018-08-31T07:49:40.855Z,1528.00
2018-08-31T07:50:40.806Z,1456.00
2018-08-31T07:51:40.755Z,1388.00
2018-08-31T07:52:40.742Z,1368.00
2018-08-31T07:53:40.688Z,1392.00
2018-08-31T07:54:40.611Z,1436.00
2018-08-31T07:55:40.595Z,1516.00
2018-08-31T07:56:40.514Z,1592.00
2018-08-31T07:57:40.497Z,1644.00
2018-08-31T07:58:40.416Z,1672.00
2018-08-31T07:59:40.367Z,1724.00
2018-08-31T08:00:40.319Z,1816.00
2018-08-31T08:01:40.295Z,1924.00
2018-08-31T08:02:40.221Z,2016.00
2018-08-31T08:03:40.172Z,2076.00
2018-08-31T08:04:40.124Z,2200.00
2018-08-31T08:05:40.119Z,2320.00
2018-08-31T08:06:40.027Z,2312.00
2018-08-31T08:07:39.979Z,2308.00
2018-08-31T08:08:39.931Z,2284.00
2018-08-31T08:09:39.905Z,2156.00
2018-08-31T08:10:39.836Z,2076.00
2018-08-31T08:11:39.783Z,2040.00
2018-08-31T08:12:39.744Z,2028.00
2018-08-31T08:13:39.691Z,2008.00
2018-08-31T08:14:39.736Z,2020.00
2018-08-31T08:15:39.595Z,2028.00
2018-08-31T08:16:39.543Z,2076.00
2018-08-31T08:17:39.496Z,2112.00
2018-08-31T08:18:39.449Z,2120.00
2018-08-31T08:19:39.506Z,2080.00
2018-08-31T08:20:39.362Z,2128.00
2018-08-31T08:21:39.306Z,2164.00
2018-08-31T08:22:39.390Z,2156.00
2018-08-31T08:23:39.239Z,2100.00
2018-08-31T08:24:39.159Z,2040.00
2018-08-31T08:25:39.165Z,1964.00
2018-08-31T08:26:39.066Z,1936.00
2018-08-31T08:27:39.080Z,1912.00
2018-08-31T08:28:38.970Z,1864.00
2018-08-31T08:29:38.925Z,1868.00
2018-08-31T08:30:38.923Z,1832.00
2018-08-31T08:31:38.827Z,1796.00
2018-08-31T08:32:38.800Z,1804.00
2018-08-31T08:33:38.732Z,1828.00
2018-08-31T08:34:38.684Z,1864.00
2018-08-31T08:35:38.669Z,1880.00
2018-08-31T08:36:38.587Z,1868.00
2018-08-31T08:37:38.579Z,1872.00
2018-08-31T08:38:38.493Z,1860.00
2018-08-31T08:39:38.445Z,1848.00
2018-08-31T08:40:38.398Z,1812.00
2018-08-31T08:41:38.351Z,1716.00
2018-08-31T08:42:38.348Z,1628.00
2018-08-31T08:43:38.258Z,1652.00
2018-08-31T08:44:38.208Z,1712.00
2018-08-31T08:45:38.159Z,1816.00
2018-08-31T08:46:38.116Z,1952.00
2018-08-31T08:47:38.102Z,2120.00
2018-08-31T08:48:38.144Z,2160.00
2018-08-31T08:49:37.973Z,2192.00
2018-08-31T08:50:37.923Z,2236.00
2018-08-31T08:51:38.015Z,2392.00
2018-08-31T08:52:37.860Z,2624.00
2018-08-31T08:53:37.782Z,2864.00
2018-08-31T08:54:37.745Z,3108.00
2018-08-31T08:55:37.691Z,3364.00
2018-08-31T08:56:37.641Z,3744.00
2018-08-31T08:57:37.626Z,4076.00
2018-08-31T08:58:37.561Z,4420.00
2018-08-31T08:59:37.497Z,4752.00
2018-08-31T09:00:37.485Z,5084.00
2018-08-31T09:01:37.405Z,5356.00
2018-08-31T09:02:37.358Z,5484.00
2018-08-31T09:03:37.341Z,5620.00
2018-08-31T09:04:37.263Z,5788.00
2018-08-31T09:05:37.287Z,6020.00
2018-08-31T09:06:37.171Z,6300.00
2018-08-31T09:07:37.127Z,6428.00
2018-08-31T09:08:37.127Z,6520.00
2018-08-31T09:09:37.031Z,6716.00
2018-08-31T09:10:36.986Z,6764.00
2018-08-31T09:11:36.936Z,6732.00
2018-08-31T09:12:36.897Z,6504.00
2018-08-31T09:13:36.887Z,6372.00
2018-08-31T09:14:36.799Z,6352.00
2018-08-31T09:15:36.756Z,6572.00
2018-08-31T09:16:36.709Z,6880.00
2018-08-31T09:17:36.668Z,6928.00
2018-08-31T09:18:36.762Z,7044.00
2018-08-31T09:19:36.572Z,6956.00
2018-08-31T09:20:36.532Z,7148.00
2018-08-31T09:21:36.481Z,7964.00
2018-08-31T09:22:36.476Z,7316.00
2018-08-31T09:23:36.390Z,6796.00
2018-08-31T09:24:36.374Z,6200.00
2018-08-31T09:25:36.306Z,5828.00
2018-08-31T09:26:36.258Z,5676.00
2018-08-31T09:27:36.243Z,5752.00
2018-08-31T09:28:36.167Z,6056.00
2018-08-31T09:29:36.123Z,6516.00
2018-08-31T09:30:36.080Z,7048.00
2018-08-31T09:31:36.064Z,7256.00
2018-08-31T09:32:36.017Z,7640.00
2018-08-31T09:33:35.977Z,7656.00
2018-08-31T09:34:35.902Z,7140.00
2018-08-31T09:35:35.857Z,7112.00
2018-08-31T09:36:35.813Z,6248.00
2018-08-31T09:37:35.801Z,5628.00
2018-08-31T09:38:35.729Z,5148.00
2018-08-31T09:39:35.683Z,4048.00
2018-08-31T09:40:35.636Z,3948.00
2018-08-31T09:41:35.625Z,3816.00
2018-08-31T09:42:35.588Z,3684.00
2018-08-31T09:43:35.513Z,3588.00
2018-08-31T09:44:35.472Z,3324.00
2018-08-31T09:45:35.421Z,3120.00
2018-08-31T09:46:35.383Z,3032.00
2018-08-31T09:47:35.368Z,3032.00
2018-08-31T09:48:35.291Z,2932.00
2018-08-31T09:49:35.315Z,2960.00
2018-08-31T09:50:35.204Z,3044.00
2018-08-31T09:51:35.161Z,3156.00
2018-08-31T09:52:35.138Z,3248.00
2018-08-31T09:53:35.076Z,3280.00
2018-08-31T09:54:35.082Z,3328.00
2018-08-31T09:55:34.989Z,3348.00
2018-08-31T09:56:35.902Z,3368.00
2018-08-31T09:57:34.955Z,3296.00
2018-08-31T09:58:34.859Z,3228.00
2018-08-31T09:59:34.857Z,3152.00
2018-08-31T10:00:34.772Z,3040.00
2018-08-31T10:01:34.730Z,2896.00
2018-08-31T10:02:34.686Z,2740.00
2018-08-31T10:03:34.652Z,2516.00
2018-08-31T10:04:34.627Z,2332.00
2018-08-31T10:05:34.606Z,2204.00
2018-08-31T10:06:34.514Z,2140.00
2018-08-31T10:07:34.472Z,2104.00
2018-08-31T10:08:34.425Z,2132.00
2018-08-31T10:09:34.381Z,2128.00
2018-08-31T10:10:34.471Z,2160.00
2018-08-31T10:11:34.301Z,2192.00
2018-08-31T10:12:34.249Z,2232.00
2018-08-31T10:13:34.204Z,2260.00
2018-08-31T10:14:34.182Z,2296.00
2018-08-31T10:15:34.151Z,2352.00
2018-08-31T10:16:34.108Z,2440.00
2018-08-31T10:17:34.954Z,2532.00
2018-08-31T10:18:34.069Z,2640.00
2018-08-31T10:19:33.944Z,2784.00
2018-08-31T10:20:33.899Z,2944.00
2018-08-31T10:21:33.890Z,3044.00
2018-08-31T10:22:33.812Z,3084.00
2018-08-31T10:23:33.768Z,3068.00
2018-08-31T10:24:33.727Z,3052.00
2018-08-31T10:25:33.687Z,3104.00
2018-08-31T10:26:34.470Z,3232.00
2018-08-31T10:27:33.593Z,3508.00
2018-08-31T10:28:33.555Z,3684.00
2018-08-31T10:29:33.631Z,3852.00
2018-08-31T10:30:33.461Z,4008.00
2018-08-31T10:31:33.418Z,4128.00
2018-08-31T10:32:33.376Z,4308.00
2018-08-31T10:33:33.331Z,4456.00
2018-08-31T10:34:33.473Z,5216.00
2018-08-31T10:35:33.243Z,4828.00
2018-08-31T10:36:33.199Z,4956.00
2018-08-31T10:37:33.157Z,5232.00
2018-08-31T10:38:33.109Z,5980.00
2018-08-31T10:39:33.120Z,6204.00
2018-08-31T10:40:33.023Z,6084.00
2018-08-31T10:41:32.979Z,4964.00
2018-08-31T10:42:32.940Z,4836.00
2018-08-31T10:43:32.892Z,4900.00
2018-08-31T10:44:32.883Z,4736.00
2018-08-31T10:45:32.805Z,4368.00
2018-08-31T10:46:32.788Z,4172.00
2018-08-31T10:47:32.722Z,4064.00
2018-08-31T10:48:32.722Z,4388.00
2018-08-31T10:49:32.634Z,5012.00
2018-08-31T10:50:32.589Z,4752.00
2018-08-31T10:51:32.547Z,4904.00
2018-08-31T10:52:32.502Z,4460.00
2018-08-31T10:53:32.495Z,4572.00
2018-08-31T10:54:32.421Z,4996.00
2018-08-31T10:55:32.377Z,5808.00
2018-08-31T10:56:32.364Z,6080.00
2018-08-31T10:57:32.291Z,6564.00
2018-08-31T10:58:32.247Z,6356.00
2018-08-31T10:59:32.205Z,6628.00
2018-08-31T11:00:32.165Z,6628.00
2018-08-31T11:01:32.156Z,6612.00
2018-08-31T11:02:32.080Z,6660.00
2018-08-31T11:03:32.037Z,6680.00
2018-08-31T11:04:32.025Z,5180.00
2018-08-31T11:05:31.988Z,5740.00
2018-08-31T11:06:31.943Z,5712.00
2018-08-31T11:07:31.870Z,5160.00
2018-08-31T11:08:31.838Z,5120.00
2018-08-31T11:09:31.787Z,6004.00
2018-08-31T11:10:31.742Z,6612.00
2018-08-31T11:11:31.736Z,6500.00
2018-08-31T11:12:31.732Z,6816.00
2018-08-31T11:13:31.619Z,6776.00
2018-08-31T11:14:31.615Z,6812.00
2018-08-31T11:15:31.539Z,5220.00
2018-08-31T11:16:31.529Z,4948.00
2018-08-31T11:17:31.456Z,4840.00
2018-08-31T11:18:31.413Z,4748.00
2018-08-31T11:19:31.375Z,4640.00
2018-08-31T11:20:31.334Z,4712.00
2018-08-31T11:21:31.326Z,4876.00
2018-08-31T11:22:31.250Z,4868.00
2018-08-31T11:23:31.212Z,4876.00
2018-08-31T11:24:31.210Z,6144.00
2018-08-31T11:25:31.938Z,6876.00
2018-08-31T11:26:31.089Z,6788.00
2018-08-31T11:27:31.045Z,6764.00
2018-08-31T11:28:31.009Z,5172.00
2018-08-31T11:29:30.986Z,4516.00
2018-08-31T11:30:30.923Z,4584.00
2018-08-31T11:31:30.889Z,4428.00
2018-08-31T11:32:30.845Z,4308.00
2018-08-31T11:33:30.805Z,4308.00
2018-08-31T11:34:30.784Z,5332.00
2018-08-31T11:35:30.719Z,6060.00
2018-08-31T11:36:30.679Z,6192.00
2018-08-31T11:37:30.641Z,6148.00
2018-08-31T11:38:30.630Z,6120.00
2018-08-31T11:39:30.667Z,6072.00
2018-08-31T11:40:30.516Z,5984.00
2018-08-31T11:41:30.480Z,5796.00
2018-08-31T11:42:30.434Z,5220.00
2018-08-31T11:43:30.410Z,4960.00
2018-08-31T11:44:30.386Z,4132.00
2018-08-31T11:45:30.348Z,3812.00
2018-08-31T11:46:30.275Z,3712.00
2018-08-31T11:47:30.234Z,3580.00
2018-08-31T11:48:30.196Z,3564.00
2018-08-31T11:49:30.154Z,4588.00
2018-08-31T11:50:30.241Z,4212.00
2018-08-31T11:51:30.073Z,4928.00
2018-08-31T11:52:30.033Z,5476.00
2018-08-31T11:53:29.994Z,5648.00
2018-08-31T11:54:29.985Z,5684.00
2018-08-31T11:55:29.961Z,5756.00
2018-08-31T11:56:29.875Z,5708.00
2018-08-31T11:57:29.835Z,5672.00
2018-08-31T11:58:29.793Z,5656.00
2018-08-31T11:59:29.757Z,3720.00
2018-08-31T12:00:29.755Z,4040.00
2018-08-31T12:01:29.736Z,5264.00
2018-08-31T12:02:29.635Z,4504.00
2018-08-31T12:03:29.594Z,5408.00
2018-08-31T12:04:29.557Z,5004.00
2018-08-31T12:05:29.545Z,4744.00
2018-08-31T12:06:29.501Z,5476.00
2018-08-31T12:07:29.440Z,5568.00
2018-08-31T12:08:29.397Z,5516.00
2018-08-31T12:09:29.357Z,5476.00
2018-08-31T12:10:29.319Z,5400.00
2018-08-31T12:11:29.309Z,5328.00
2018-08-31T12:12:29.237Z,5244.00
2018-08-31T12:13:29.236Z,5272.00
2018-08-31T12:14:29.160Z,5272.00
2018-08-31T12:15:29.121Z,5252.00
2018-08-31T12:16:29.084Z,5036.00
2018-08-31T12:17:29.084Z,5292.00
2018-08-31T12:18:29.012Z,5244.00
2018-08-31T12:19:28.969Z,5244.00
2018-08-31T12:20:28.927Z,5184.00
2018-08-31T12:21:28.886Z,4808.00
2018-08-31T12:22:28.900Z,3192.00
2018-08-31T12:23:28.811Z,2832.00
2018-08-31T12:24:28.772Z,2632.00
2018-08-31T12:25:28.735Z,2508.00
2018-08-31T12:26:28.695Z,2408.00
2018-08-31T12:27:28.686Z,2360.00
2018-08-31T12:28:28.645Z,2356.00
2018-08-31T12:29:28.579Z,2356.00
2018-08-31T12:30:28.538Z,2352.00
2018-08-31T12:31:28.498Z,2340.00
2018-08-31T12:32:28.463Z,2336.00
2018-08-31T12:33:28.452Z,2372.00